sensor_id;sensor_type;location;lat;lon;timestamp;temperature;humidity
59162;DHT22;44942;48.936;8.260;2022-12-13T00:02:02;19.90;48.60
59162;DHT22;44942;48.936;8.260;2022-12-13T00:07:03;19.90;48.60
59162;DHT22;44942;48.936;8.260;2022-12-13T00:12:03;19.90;48.60
59162;DHT22;44942;48.936;8.260;2022-12-13T00:17:04;19.90;48.50
59162;DHT22;44942;48.936;8.260;2022-12-13T00:22:05;19.90;48.40
59162;DHT22;44942;48.936;8.260;2022-12-13T00:27:06;19.90;48.40
59162;DHT22;44942;48.936;8.260;2022-12-13T00:32:07;19.90;48.30
59162;DHT22;44942;48.936;8.260;2022-12-13T00:37:07;19.90;48.30
59162;DHT22;44942;48.936;8.260;2022-12-13T00:42:08;19.90;48.20
59162;DHT22;44942;48.936;8.260;2022-12-13T00:47:08;19.90;48.30
59162;DHT22;44942;48.936;8.260;2022-12-13T00:52:09;19.90;48.20
59162;DHT22;44942;48.936;8.260;2022-12-13T00:57:09;19.90;48.90
59162;DHT22;44942;48.936;8.260;2022-12-13T01:02:10;19.90;48.20
59162;DHT22;44942;48.936;8.260;2022-12-13T01:07:10;19.90;48.20
59162;DHT22;44942;48.936;8.260;2022-12-13T01:12:11;19.90;48.20
59162;DHT22;44942;48.936;8.260;2022-12-13T01:17:12;19.90;48.20
59162;DHT22;44942;48.936;8.260;2022-12-13T01:22:12;19.90;48.20
59162;DHT22;44942;48.936;8.260;2022-12-13T01:27:13;19.80;48.20
59162;DHT22;44942;48.936;8.260;2022-12-13T01:32:14;19.80;48.20
59162;DHT22;44942;48.936;8.260;2022-12-13T01:37:14;19.80;48.20
59162;DHT22;44942;48.936;8.260;2022-12-13T01:42:16;19.80;48.20
59162;DHT22;44942;48.936;8.260;2022-12-13T01:47:29;19.80;48.20
59162;DHT22;44942;48.936;8.260;2022-12-13T01:52:32;19.80;48.20
59162;DHT22;44942;48.936;8.260;2022-12-13T01:57:36;19.80;48.20
59162;DHT22;44942;48.936;8.260;2022-12-13T02:02:38;19.80;48.20
59162;DHT22;44942;48.936;8.260;2022-12-13T02:07:41;19.80;48.10
59162;DHT22;44942;48.936;8.260;2022-12-13T02:12:42;19.80;48.10
59162;DHT22;44942;48.936;8.260;2022-12-13T02:18:17;19.80;48.10
59162;DHT22;44942;48.936;8.260;2022-12-13T02:34:08;19.80;47.90
59162;DHT22;44942;48.936;8.260;2022-12-13T02:39:29;19.80;48.00
59162;DHT22;44942;48.936;8.260;2022-12-13T02:44:42;19.80;48.10
59162;DHT22;44942;48.936;8.260;2022-12-13T02:49:47;19.80;48.10
59162;DHT22;44942;48.936;8.260;2022-12-13T02:54:48;19.80;48.20
59162;DHT22;44942;48.936;8.260;2022-12-13T02:59:48;19.70;48.30
59162;DHT22;44942;48.936;8.260;2022-12-13T03:10:27;19.70;48.40
59162;DHT22;44942;48.936;8.260;2022-12-13T03:20:50;19.70;48.50
59162;DHT22;44942;48.936;8.260;2022-12-13T03:25:54;19.70;48.50
59162;DHT22;44942;48.936;8.260;2022-12-13T03:30:55;19.70;48.40
59162;DHT22;44942;48.936;8.260;2022-12-13T03:35:56;19.70;48.50
59162;DHT22;44942;48.936;8.260;2022-12-13T03:41:01;19.70;48.60
59162;DHT22;44942;48.936;8.260;2022-12-13T03:46:02;19.70;48.60
59162;DHT22;44942;48.936;8.260;2022-12-13T03:51:03;19.70;48.50
59162;DHT22;44942;48.936;8.260;2022-12-13T03:56:05;19.70;48.40
59162;DHT22;44942;48.936;8.260;2022-12-13T04:01:07;19.60;48.30
59162;DHT22;44942;48.936;8.260;2022-12-13T04:06:08;19.60;48.30
59162;DHT22;44942;48.936;8.260;2022-12-13T04:11:08;19.60;48.40
59162;DHT22;44942;48.936;8.260;2022-12-13T04:16:28;19.60;48.30
59162;DHT22;44942;48.936;8.260;2022-12-13T04:21:28;19.60;48.30
59162;DHT22;44942;48.936;8.260;2022-12-13T04:26:29;19.60;48.30
59162;DHT22;44942;48.936;8.260;2022-12-13T04:31:29;19.60;48.20
59162;DHT22;44942;48.936;8.260;2022-12-13T04:36:30;19.60;48.10
59162;DHT22;44942;48.936;8.260;2022-12-13T04:41:35;19.60;48.10
59162;DHT22;44942;48.936;8.260;2022-12-13T04:46:36;19.60;48.10
59162;DHT22;44942;48.936;8.260;2022-12-13T04:51:37;19.60;48.10
59162;DHT22;44942;48.936;8.260;2022-12-13T04:56:37;19.60;48.00
59162;DHT22;44942;48.936;8.260;2022-12-13T05:01:38;19.60;48.10
59162;DHT22;44942;48.936;8.260;2022-12-13T05:06:38;19.60;48.10
59162;DHT22;44942;48.936;8.260;2022-12-13T05:11:39;19.50;48.10
59162;DHT22;44942;48.936;8.260;2022-12-13T05:16:39;19.50;48.90
59162;DHT22;44942;48.936;8.260;2022-12-13T05:21:40;19.50;48.20
59162;DHT22;44942;48.936;8.260;2022-12-13T05:26:40;19.50;48.20
59162;DHT22;44942;48.936;8.260;2022-12-13T05:31:41;19.50;48.20
59162;DHT22;44942;48.936;8.260;2022-12-13T05:36:41;19.50;48.20
59162;DHT22;44942;48.936;8.260;2022-12-13T05:41:42;19.50;48.20
59162;DHT22;44942;48.936;8.260;2022-12-13T05:46:43;19.50;48.10
59162;DHT22;44942;48.936;8.260;2022-12-13T05:51:44;19.50;48.00
59162;DHT22;44942;48.936;8.260;2022-12-13T05:56:44;19.50;47.90
59162;DHT22;44942;48.936;8.260;2022-12-13T06:01:45;19.50;47.70
59162;DHT22;44942;48.936;8.260;2022-12-13T06:06:45;19.40;47.60
59162;DHT22;44942;48.936;8.260;2022-12-13T06:11:47;19.40;47.60
59162;DHT22;44942;48.936;8.260;2022-12-13T06:16:47;19.40;47.60
59162;DHT22;44942;48.936;8.260;2022-12-13T06:21:49;19.40;47.60
59162;DHT22;44942;48.936;8.260;2022-12-13T06:26:50;19.40;47.60
59162;DHT22;44942;48.936;8.260;2022-12-13T06:31:52;19.40;47.60
59162;DHT22;44942;48.936;8.260;2022-12-13T06:36:53;19.40;47.40
59162;DHT22;44942;48.936;8.260;2022-12-13T06:41:54;19.30;47.20
59162;DHT22;44942;48.936;8.260;2022-12-13T06:46:55;19.40;47.90
59162;DHT22;44942;48.936;8.260;2022-12-13T06:51:56;19.30;46.70
59162;DHT22;44942;48.936;8.260;2022-12-13T06:56:56;19.30;46.30
59162;DHT22;44942;48.936;8.260;2022-12-13T07:01:57;19.30;46.20
59162;DHT22;44942;48.936;8.260;2022-12-13T07:06:58;19.20;46.00
59162;DHT22;44942;48.936;8.260;2022-12-13T07:11:59;19.20;45.80
59162;DHT22;44942;48.936;8.260;2022-12-13T07:16:59;19.30;45.80
59162;DHT22;44942;48.936;8.260;2022-12-13T07:22:00;19.20;45.60
59162;DHT22;44942;48.936;8.260;2022-12-13T07:27:02;19.20;45.50
59162;DHT22;44942;48.936;8.260;2022-12-13T07:32:02;19.20;45.40
59162;DHT22;44942;48.936;8.260;2022-12-13T07:37:03;19.20;45.40
59162;DHT22;44942;48.936;8.260;2022-12-13T07:42:03;19.20;45.50
59162;DHT22;44942;48.936;8.260;2022-12-13T07:47:04;19.20;45.50
59162;DHT22;44942;48.936;8.260;2022-12-13T07:52:09;19.20;45.40
59162;DHT22;44942;48.936;8.260;2022-12-13T07:57:10;19.20;45.40
59162;DHT22;44942;48.936;8.260;2022-12-13T08:02:12;19.20;45.40
59162;DHT22;44942;48.936;8.260;2022-12-13T08:07:12;19.20;45.40
59162;DHT22;44942;48.936;8.260;2022-12-13T08:12:14;19.20;45.50
59162;DHT22;44942;48.936;8.260;2022-12-13T08:17:14;19.10;45.50
59162;DHT22;44942;48.936;8.260;2022-12-13T08:22:15;19.20;45.50
59162;DHT22;44942;48.936;8.260;2022-12-13T08:27:15;19.20;45.50
59162;DHT22;44942;48.936;8.260;2022-12-13T08:32:16;19.20;45.50
59162;DHT22;44942;48.936;8.260;2022-12-13T08:37:17;19.20;46.30
59162;DHT22;44942;48.936;8.260;2022-12-13T08:42:18;19.10;46.10
59162;DHT22;44942;48.936;8.260;2022-12-13T08:47:20;19.20;45.60
59162;DHT22;44942;48.936;8.260;2022-12-13T08:52:22;19.20;45.60
59162;DHT22;44942;48.936;8.260;2022-12-13T08:57:23;19.20;45.60
59162;DHT22;44942;48.936;8.260;2022-12-13T09:02:23;19.20;45.70
59162;DHT22;44942;48.936;8.260;2022-12-13T09:07:24;19.20;45.70
59162;DHT22;44942;48.936;8.260;2022-12-13T09:12:25;19.20;45.70
59162;DHT22;44942;48.936;8.260;2022-12-13T09:17:25;19.20;45.70
59162;DHT22;44942;48.936;8.260;2022-12-13T09:22:26;19.20;45.70
59162;DHT22;44942;48.936;8.260;2022-12-13T09:27:27;19.20;45.70
59162;DHT22;44942;48.936;8.260;2022-12-13T09:32:30;19.20;45.80
59162;DHT22;44942;48.936;8.260;2022-12-13T09:37:31;19.20;45.70
59162;DHT22;44942;48.936;8.260;2022-12-13T09:42:32;19.20;45.80
59162;DHT22;44942;48.936;8.260;2022-12-13T09:47:40;19.20;45.80
59162;DHT22;44942;48.936;8.260;2022-12-13T09:52:43;19.20;45.70
59162;DHT22;44942;48.936;8.260;2022-12-13T09:57:44;19.20;45.70
59162;DHT22;44942;48.936;8.260;2022-12-13T10:02:51;19.20;45.80
59162;DHT22;44942;48.936;8.260;2022-12-13T10:07:55;19.20;45.80
59162;DHT22;44942;48.936;8.260;2022-12-13T10:13:19;19.20;45.70
59162;DHT22;44942;48.936;8.260;2022-12-13T10:18:32;19.20;45.70
59162;DHT22;44942;48.936;8.260;2022-12-13T10:23:33;19.20;45.70
59162;DHT22;44942;48.936;8.260;2022-12-13T10:28:33;19.20;45.80
59162;DHT22;44942;48.936;8.260;2022-12-13T10:33:40;19.20;45.80
59162;DHT22;44942;48.936;8.260;2022-12-13T10:38:45;19.20;45.70
59162;DHT22;44942;48.936;8.260;2022-12-13T10:49:20;19.20;45.70
59162;DHT22;44942;48.936;8.260;2022-12-13T10:54:30;19.20;45.70
59162;DHT22;44942;48.936;8.260;2022-12-13T10:59:36;19.20;45.70
59162;DHT22;44942;48.936;8.260;2022-12-13T11:04:37;19.20;45.70
59162;DHT22;44942;48.936;8.260;2022-12-13T11:09:38;19.20;45.80
59162;DHT22;44942;48.936;8.260;2022-12-13T11:14:54;19.20;45.70
59162;DHT22;44942;48.936;8.260;2022-12-13T11:19:59;19.20;45.70
59162;DHT22;44942;48.936;8.260;2022-12-13T11:25:07;19.20;45.70
59162;DHT22;44942;48.936;8.260;2022-12-13T11:41:07;19.20;45.70
59162;DHT22;44942;48.936;8.260;2022-12-13T11:46:40;19.20;45.70
59162;DHT22;44942;48.936;8.260;2022-12-13T11:51:49;19.20;45.70
59162;DHT22;44942;48.936;8.260;2022-12-13T11:56:55;19.20;45.70
59162;DHT22;44942;48.936;8.260;2022-12-13T12:02:24;19.20;45.80
59162;DHT22;44942;48.936;8.260;2022-12-13T12:07:36;19.20;45.70
59162;DHT22;44942;48.936;8.260;2022-12-13T12:12:42;19.10;45.70
59162;DHT22;44942;48.936;8.260;2022-12-13T12:17:45;19.10;45.70
59162;DHT22;44942;48.936;8.260;2022-12-13T12:23:00;19.10;45.70
59162;DHT22;44942;48.936;8.260;2022-12-13T12:34:10;19.20;45.70
59162;DHT22;44942;48.936;8.260;2022-12-13T12:44:38;19.10;45.60
59162;DHT22;44942;48.936;8.260;2022-12-13T13:00:17;19.10;46.40
59162;DHT22;44942;48.936;8.260;2022-12-13T13:05:29;19.10;45.60
59162;DHT22;44942;48.936;8.260;2022-12-13T13:10:33;19.10;45.60
59162;DHT22;44942;48.936;8.260;2022-12-13T13:20:40;19.10;45.60
59162;DHT22;44942;48.936;8.260;2022-12-13T13:25:44;19.10;45.60
59162;DHT22;44942;48.936;8.260;2022-12-13T13:31:07;19.10;45.60
59162;DHT22;44942;48.936;8.260;2022-12-13T13:36:08;19.10;45.60
59162;DHT22;44942;48.936;8.260;2022-12-13T13:41:38;19.10;45.60
59162;DHT22;44942;48.936;8.260;2022-12-13T13:52:19;19.10;45.60
59162;DHT22;44942;48.936;8.260;2022-12-13T14:08:27;19.00;45.60
59162;DHT22;44942;48.936;8.260;2022-12-13T14:30:05;19.00;45.50
59162;DHT22;44942;48.936;8.260;2022-12-13T14:35:06;19.00;45.60
59162;DHT22;44942;48.936;8.260;2022-12-13T14:40:29;19.00;45.60
59162;DHT22;44942;48.936;8.260;2022-12-13T14:45:33;19.00;45.50
59162;DHT22;44942;48.936;8.260;2022-12-13T14:50:37;19.00;45.50
59162;DHT22;44942;48.936;8.260;2022-12-13T14:55:39;19.00;45.50
59162;DHT22;44942;48.936;8.260;2022-12-13T15:00:39;18.90;45.40
59162;DHT22;44942;48.936;8.260;2022-12-13T15:05:42;19.00;45.50
59162;DHT22;44942;48.936;8.260;2022-12-13T15:10:56;19.00;45.50
59162;DHT22;44942;48.936;8.260;2022-12-13T15:16:00;19.00;45.40
59162;DHT22;44942;48.936;8.260;2022-12-13T15:21:01;18.90;45.40
59162;DHT22;44942;48.936;8.260;2022-12-13T15:26:17;18.90;45.40
59162;DHT22;44942;48.936;8.260;2022-12-13T15:31:19;18.90;45.40
59162;DHT22;44942;48.936;8.260;2022-12-13T15:36:25;18.90;45.40
59162;DHT22;44942;48.936;8.260;2022-12-13T15:46:31;18.90;45.40
59162;DHT22;44942;48.936;8.260;2022-12-13T15:51:32;18.90;45.30
59162;DHT22;44942;48.936;8.260;2022-12-13T15:56:36;18.90;45.30
59162;DHT22;44942;48.936;8.260;2022-12-13T16:01:37;18.90;45.30
59162;DHT22;44942;48.936;8.260;2022-12-13T16:06:38;18.90;45.30
59162;DHT22;44942;48.936;8.260;2022-12-13T16:11:46;18.80;45.20
59162;DHT22;44942;48.936;8.260;2022-12-13T16:16:47;18.80;45.30
59162;DHT22;44942;48.936;8.260;2022-12-13T16:21:48;18.80;45.20
59162;DHT22;44942;48.936;8.260;2022-12-13T16:26:49;18.80;45.20
59162;DHT22;44942;48.936;8.260;2022-12-13T16:31:50;18.80;45.20
59162;DHT22;44942;48.936;8.260;2022-12-13T16:36:50;18.80;45.20
59162;DHT22;44942;48.936;8.260;2022-12-13T16:41:51;18.80;45.20
59162;DHT22;44942;48.936;8.260;2022-12-13T16:46:53;18.80;45.20
59162;DHT22;44942;48.936;8.260;2022-12-13T16:51:54;18.80;45.10
59162;DHT22;44942;48.936;8.260;2022-12-13T16:56:55;18.80;45.10
59162;DHT22;44942;48.936;8.260;2022-12-13T17:01:56;18.80;45.00
59162;DHT22;44942;48.936;8.260;2022-12-13T17:06:57;18.70;44.80
59162;DHT22;44942;48.936;8.260;2022-12-13T17:11:57;18.70;44.60
59162;DHT22;44942;48.936;8.260;2022-12-13T17:16:58;18.70;44.50
59162;DHT22;44942;48.936;8.260;2022-12-13T17:21:59;18.70;44.40
59162;DHT22;44942;48.936;8.260;2022-12-13T17:26:59;18.70;44.40
59162;DHT22;44942;48.936;8.260;2022-12-13T17:32:00;18.70;44.30
59162;DHT22;44942;48.936;8.260;2022-12-13T17:37:00;18.70;44.40
59162;DHT22;44942;48.936;8.260;2022-12-13T17:42:01;18.70;44.30
59162;DHT22;44942;48.936;8.260;2022-12-13T17:47:01;18.70;44.40
59162;DHT22;44942;48.936;8.260;2022-12-13T17:52:03;18.70;44.40
59162;DHT22;44942;48.936;8.260;2022-12-13T17:57:03;18.70;44.50
59162;DHT22;44942;48.936;8.260;2022-12-13T18:02:05;18.70;44.50
59162;DHT22;44942;48.936;8.260;2022-12-13T18:07:06;18.70;44.50
59162;DHT22;44942;48.936;8.260;2022-12-13T18:12:07;18.70;44.60
59162;DHT22;44942;48.936;8.260;2022-12-13T18:17:07;18.70;44.70
59162;DHT22;44942;48.936;8.260;2022-12-13T18:22:08;18.70;44.70
59162;DHT22;44942;48.936;8.260;2022-12-13T18:27:09;18.70;44.80
59162;DHT22;44942;48.936;8.260;2022-12-13T18:32:10;18.70;45.30
59162;DHT22;44942;48.936;8.260;2022-12-13T18:37:10;18.70;44.90
59162;DHT22;44942;48.936;8.260;2022-12-13T18:42:11;18.80;45.00
59162;DHT22;44942;48.936;8.260;2022-12-13T18:47:11;18.70;44.90
59162;DHT22;44942;48.936;8.260;2022-12-13T18:52:12;18.80;45.00
59162;DHT22;44942;48.936;8.260;2022-12-13T18:57:12;18.80;45.10
59162;DHT22;44942;48.936;8.260;2022-12-13T19:02:13;18.80;45.10
59162;DHT22;44942;48.936;8.260;2022-12-13T19:07:14;18.80;45.10
59162;DHT22;44942;48.936;8.260;2022-12-13T19:12:15;18.80;45.10
59162;DHT22;44942;48.936;8.260;2022-12-13T19:17:16;18.80;45.20
59162;DHT22;44942;48.936;8.260;2022-12-13T19:22:17;18.80;45.30
59162;DHT22;44942;48.936;8.260;2022-12-13T19:27:17;18.80;45.30
59162;DHT22;44942;48.936;8.260;2022-12-13T19:32:18;18.80;46.00
59162;DHT22;44942;48.936;8.260;2022-12-13T19:37:18;18.90;45.30
59162;DHT22;44942;48.936;8.260;2022-12-13T19:42:19;18.90;46.00
59162;DHT22;44942;48.936;8.260;2022-12-13T19:47:20;18.90;45.40
59162;DHT22;44942;48.936;8.260;2022-12-13T19:52:21;18.90;45.40
59162;DHT22;44942;48.936;8.260;2022-12-13T19:57:21;19.00;45.70
59162;DHT22;44942;48.936;8.260;2022-12-13T20:02:22;19.00;45.60
59162;DHT22;44942;48.936;8.260;2022-12-13T20:07:22;19.00;45.60
59162;DHT22;44942;48.936;8.260;2022-12-13T20:12:25;19.10;45.90
59162;DHT22;44942;48.936;8.260;2022-12-13T20:17:26;19.10;45.90
59162;DHT22;44942;48.936;8.260;2022-12-13T20:22:26;19.10;46.00
59162;DHT22;44942;48.936;8.260;2022-12-13T20:27:27;19.20;46.10
59162;DHT22;44942;48.936;8.260;2022-12-13T20:32:28;19.20;46.10
59162;DHT22;44942;48.936;8.260;2022-12-13T20:37:29;19.20;46.10
59162;DHT22;44942;48.936;8.260;2022-12-13T20:42:29;19.20;46.10
59162;DHT22;44942;48.936;8.260;2022-12-13T20:47:30;19.20;46.10
59162;DHT22;44942;48.936;8.260;2022-12-13T20:52:30;19.30;46.20
59162;DHT22;44942;48.936;8.260;2022-12-13T20:57:31;19.30;46.20
59162;DHT22;44942;48.936;8.260;2022-12-13T21:02:32;19.30;46.30
59162;DHT22;44942;48.936;8.260;2022-12-13T21:07:32;19.30;46.30
59162;DHT22;44942;48.936;8.260;2022-12-13T21:12:52;19.40;46.80
59162;DHT22;44942;48.936;8.260;2022-12-13T21:17:52;19.40;46.40
59162;DHT22;44942;48.936;8.260;2022-12-13T21:22:53;19.50;46.50
59162;DHT22;44942;48.936;8.260;2022-12-13T21:27:53;19.50;46.50
59162;DHT22;44942;48.936;8.260;2022-12-13T21:32:54;19.50;46.50
59162;DHT22;44942;48.936;8.260;2022-12-13T21:37:55;19.60;46.60
59162;DHT22;44942;48.936;8.260;2022-12-13T21:42:56;19.60;46.60
59162;DHT22;44942;48.936;8.260;2022-12-13T21:47:57;19.60;46.60
59162;DHT22;44942;48.936;8.260;2022-12-13T21:52:58;19.70;46.70
59162;DHT22;44942;48.936;8.260;2022-12-13T21:57:58;19.70;46.70
59162;DHT22;44942;48.936;8.260;2022-12-13T22:03:17;19.80;46.80
59162;DHT22;44942;48.936;8.260;2022-12-13T22:08:18;19.80;46.70
59162;DHT22;44942;48.936;8.260;2022-12-13T22:13:18;19.80;46.70
59162;DHT22;44942;48.936;8.260;2022-12-13T22:18:19;19.90;46.70
59162;DHT22;44942;48.936;8.260;2022-12-13T22:23:20;19.90;46.70
59162;DHT22;44942;48.936;8.260;2022-12-13T22:28:21;20.00;46.70
59162;DHT22;44942;48.936;8.260;2022-12-13T22:33:22;20.10;46.60
59162;DHT22;44942;48.936;8.260;2022-12-13T22:38:22;20.00;45.50
59162;DHT22;44942;48.936;8.260;2022-12-13T22:43:23;19.70;44.20
59162;DHT22;44942;48.936;8.260;2022-12-13T22:48:23;19.60;44.20
59162;DHT22;44942;48.936;8.260;2022-12-13T22:53:24;19.70;45.10
59162;DHT22;44942;48.936;8.260;2022-12-13T22:58:26;19.80;45.40
59162;DHT22;44942;48.936;8.260;2022-12-13T23:03:27;19.90;45.60
59162;DHT22;44942;48.936;8.260;2022-12-13T23:08:27;19.90;45.70
59162;DHT22;44942;48.936;8.260;2022-12-13T23:13:28;19.90;45.90
59162;DHT22;44942;48.936;8.260;2022-12-13T23:18:28;20.00;46.00
59162;DHT22;44942;48.936;8.260;2022-12-13T23:23:29;20.00;46.00
59162;DHT22;44942;48.936;8.260;2022-12-13T23:28:29;20.00;46.10
59162;DHT22;44942;48.936;8.260;2022-12-13T23:33:30;20.00;46.10
59162;DHT22;44942;48.936;8.260;2022-12-13T23:38:31;20.10;46.20
59162;DHT22;44942;48.936;8.260;2022-12-13T23:43:32;20.10;46.30
59162;DHT22;44942;48.936;8.260;2022-12-13T23:48:33;20.10;46.30
59162;DHT22;44942;48.936;8.260;2022-12-13T23:53:37;20.10;46.40
59162;DHT22;44942;48.936;8.260;2022-12-13T23:58:38;20.10;46.50
